sensor_id;sensor_type;location;lat;lon;timestamp;P1;durP1;ratioP1;P2;durP2;ratioP2
30472;SDS011;17263;48.160;11.452;2023-09-08T00:02:23;8.97;;;8.07;;
30472;SDS011;17263;48.160;11.452;2023-09-08T00:04:52;8.67;;;7.77;;
30472;SDS011;17263;48.160;11.452;2023-09-08T00:07:19;10.93;;;8.00;;
30472;SDS011;17263;48.160;11.452;2023-09-08T00:09:45;9.13;;;7.60;;
30472;SDS011;17263;48.160;11.452;2023-09-08T00:12:11;11.30;;;7.83;;
30472;SDS011;17263;48.160;11.452;2023-09-08T00:14:37;8.63;;;7.73;;
30472;SDS011;17263;48.160;11.452;2023-09-08T00:17:04;8.40;;;7.47;;
30472;SDS011;17263;48.160;11.452;2023-09-08T00:19:30;10.87;;;8.17;;
30472;SDS011;17263;48.160;11.452;2023-09-08T00:21:56;9.73;;;8.33;;
30472;SDS011;17263;48.160;11.452;2023-09-08T00:24:22;8.80;;;7.90;;
30472;SDS011;17263;48.160;11.452;2023-09-08T00:26:48;8.67;;;7.80;;
30472;SDS011;17263;48.160;11.452;2023-09-08T00:29:14;9.07;;;7.93;;
30472;SDS011;17263;48.160;11.452;2023-09-08T00:31:41;11.33;;;8.63;;
30472;SDS011;17263;48.160;11.452;2023-09-08T00:34:10;10.00;;;7.83;;
30472;SDS011;17263;48.160;11.452;2023-09-08T00:36:36;9.40;;;8.47;;
30472;SDS011;17263;48.160;11.452;2023-09-08T00:39:02;8.87;;;7.97;;
30472;SDS011;17263;48.160;11.452;2023-09-08T00:41:29;8.63;;;7.83;;
30472;SDS011;17263;48.160;11.452;2023-09-08T00:43:55;8.33;;;7.53;;
30472;SDS011;17263;48.160;11.452;2023-09-08T00:46:21;10.77;;;8.40;;
30472;SDS011;17263;48.160;11.452;2023-09-08T00:48:47;7.80;;;7.10;;
30472;SDS011;17263;48.160;11.452;2023-09-08T00:51:13;8.33;;;7.50;;
30472;SDS011;17263;48.160;11.452;2023-09-08T00:53:40;7.83;;;7.13;;
30472;SDS011;17263;48.160;11.452;2023-09-08T00:56:06;9.10;;;8.07;;
30472;SDS011;17263;48.160;11.452;2023-09-08T00:58:34;8.70;;;7.90;;
30472;SDS011;17263;48.160;11.452;2023-09-08T01:01:00;9.77;;;7.87;;
30472;SDS011;17263;48.160;11.452;2023-09-08T01:03:26;10.13;;;7.30;;
30472;SDS011;17263;48.160;11.452;2023-09-08T01:05:52;9.37;;;8.30;;
30472;SDS011;17263;48.160;11.452;2023-09-08T01:08:20;8.83;;;7.93;;
30472;SDS011;17263;48.160;11.452;2023-09-08T01:10:46;11.43;;;8.17;;
30472;SDS011;17263;48.160;11.452;2023-09-08T01:13:13;10.27;;;7.50;;
30472;SDS011;17263;48.160;11.452;2023-09-08T01:15:39;9.03;;;7.80;;
30472;SDS011;17263;48.160;11.452;2023-09-08T01:18:05;9.57;;;7.33;;
30472;SDS011;17263;48.160;11.452;2023-09-08T01:26:13;8.60;;;7.83;;
30472;SDS011;17263;48.160;11.452;2023-09-08T01:28:44;8.97;;;8.10;;
30472;SDS011;17263;48.160;11.452;2023-09-08T01:31:12;8.33;;;7.53;;
30472;SDS011;17263;48.160;11.452;2023-09-08T01:33:38;8.90;;;8.00;;
30472;SDS011;17263;48.160;11.452;2023-09-08T01:36:05;9.53;;;7.30;;
30472;SDS011;17263;48.160;11.452;2023-09-08T01:38:31;7.83;;;7.13;;
30472;SDS011;17263;48.160;11.452;2023-09-08T01:40:57;8.17;;;7.40;;
30472;SDS011;17263;48.160;11.452;2023-09-08T01:43:23;7.63;;;6.93;;
30472;SDS011;17263;48.160;11.452;2023-09-08T01:45:49;7.83;;;7.03;;
30472;SDS011;17263;48.160;11.452;2023-09-08T01:48:15;7.87;;;7.07;;
30472;SDS011;17263;48.160;11.452;2023-09-08T01:50:41;7.50;;;6.50;;
30472;SDS011;17263;48.160;11.452;2023-09-08T01:53:07;7.97;;;7.27;;
30472;SDS011;17263;48.160;11.452;2023-09-08T01:55:33;7.30;;;6.60;;
30472;SDS011;17263;48.160;11.452;2023-09-08T01:57:59;8.07;;;7.30;;
30472;SDS011;17263;48.160;11.452;2023-09-08T02:00:26;9.47;;;7.10;;
30472;SDS011;17263;48.160;11.452;2023-09-08T02:02:52;9.80;;;7.53;;
30472;SDS011;17263;48.160;11.452;2023-09-08T02:05:18;7.87;;;7.13;;
30472;SDS011;17263;48.160;11.452;2023-09-08T02:07:44;7.77;;;7.07;;
30472;SDS011;17263;48.160;11.452;2023-09-08T02:10:10;7.13;;;6.43;;
30472;SDS011;17263;48.160;11.452;2023-09-08T02:12:36;8.20;;;7.20;;
30472;SDS011;17263;48.160;11.452;2023-09-08T02:15:02;7.37;;;6.67;;
30472;SDS011;17263;48.160;11.452;2023-09-08T02:17:30;7.77;;;6.80;;
30472;SDS011;17263;48.160;11.452;2023-09-08T02:19:56;8.07;;;7.27;;
30472;SDS011;17263;48.160;11.452;2023-09-08T02:22:22;9.17;;;6.80;;
30472;SDS011;17263;48.160;11.452;2023-09-08T02:24:48;9.47;;;6.63;;
30472;SDS011;17263;48.160;11.452;2023-09-08T02:27:14;8.10;;;6.83;;
30472;SDS011;17263;48.160;11.452;2023-09-08T02:29:40;7.70;;;6.93;;
30472;SDS011;17263;48.160;11.452;2023-09-08T02:32:06;7.57;;;6.80;;
30472;SDS011;17263;48.160;11.452;2023-09-08T02:34:35;6.70;;;6.10;;
30472;SDS011;17263;48.160;11.452;2023-09-08T02:37:04;7.27;;;6.57;;
30472;SDS011;17263;48.160;11.452;2023-09-08T02:39:30;7.83;;;7.03;;
30472;SDS011;17263;48.160;11.452;2023-09-08T02:41:57;8.00;;;6.80;;
30472;SDS011;17263;48.160;11.452;2023-09-08T02:44:23;7.33;;;6.63;;
30472;SDS011;17263;48.160;11.452;2023-09-08T02:46:50;7.57;;;6.87;;
30472;SDS011;17263;48.160;11.452;2023-09-08T02:49:16;7.33;;;6.63;;
30472;SDS011;17263;48.160;11.452;2023-09-08T02:51:42;7.53;;;6.83;;
30472;SDS011;17263;48.160;11.452;2023-09-08T02:54:08;7.70;;;6.90;;
30472;SDS011;17263;48.160;11.452;2023-09-08T02:56:34;7.53;;;6.83;;
30472;SDS011;17263;48.160;11.452;2023-09-08T02:59:00;9.07;;;7.00;;
30472;SDS011;17263;48.160;11.452;2023-09-08T03:01:26;7.20;;;6.43;;
30472;SDS011;17263;48.160;11.452;2023-09-08T03:03:52;7.80;;;7.00;;
30472;SDS011;17263;48.160;11.452;2023-09-08T03:06:19;7.63;;;6.93;;
30472;SDS011;17263;48.160;11.452;2023-09-08T03:08:46;6.80;;;6.20;;
30472;SDS011;17263;48.160;11.452;2023-09-08T03:11:12;8.00;;;7.20;;
30472;SDS011;17263;48.160;11.452;2023-09-08T03:13:38;9.33;;;6.77;;
30472;SDS011;17263;48.160;11.452;2023-09-08T03:16:05;7.50;;;6.57;;
30472;SDS011;17263;48.160;11.452;2023-09-08T03:18:32;8.07;;;6.63;;
30472;SDS011;17263;48.160;11.452;2023-09-08T03:20:59;7.73;;;6.87;;
30472;SDS011;17263;48.160;11.452;2023-09-08T03:23:35;7.40;;;6.63;;
30472;SDS011;17263;48.160;11.452;2023-09-08T03:26:06;7.63;;;6.60;;
30472;SDS011;17263;48.160;11.452;2023-09-08T03:28:33;7.67;;;6.90;;
30472;SDS011;17263;48.160;11.452;2023-09-08T03:31:03;6.80;;;6.20;;
30472;SDS011;17263;48.160;11.452;2023-09-08T03:33:30;7.07;;;6.40;;
30472;SDS011;17263;48.160;11.452;2023-09-08T03:35:56;7.40;;;6.67;;
30472;SDS011;17263;48.160;11.452;2023-09-08T03:38:22;7.53;;;6.77;;
30472;SDS011;17263;48.160;11.452;2023-09-08T03:40:49;7.53;;;6.43;;
30472;SDS011;17263;48.160;11.452;2023-09-08T03:43:15;7.27;;;6.53;;
30472;SDS011;17263;48.160;11.452;2023-09-08T03:45:41;7.00;;;6.23;;
30472;SDS011;17263;48.160;11.452;2023-09-08T03:48:07;8.57;;;6.80;;
30472;SDS011;17263;48.160;11.452;2023-09-08T03:50:34;8.07;;;6.97;;
30472;SDS011;17263;48.160;11.452;2023-09-08T03:53:00;7.30;;;6.60;;
30472;SDS011;17263;48.160;11.452;2023-09-08T03:55:26;7.33;;;6.63;;
30472;SDS011;17263;48.160;11.452;2023-09-08T03:57:52;8.87;;;6.80;;
30472;SDS011;17263;48.160;11.452;2023-09-08T04:00:19;6.90;;;5.87;;
30472;SDS011;17263;48.160;11.452;2023-09-08T04:02:50;7.20;;;6.53;;
30472;SDS011;17263;48.160;11.452;2023-09-08T04:05:16;7.10;;;6.43;;
30472;SDS011;17263;48.160;11.452;2023-09-08T04:07:45;7.87;;;6.13;;
30472;SDS011;17263;48.160;11.452;2023-09-08T04:10:11;9.00;;;6.53;;
30472;SDS011;17263;48.160;11.452;2023-09-08T04:12:38;6.53;;;5.67;;
30472;SDS011;17263;48.160;11.452;2023-09-08T04:15:05;6.77;;;6.07;;
30472;SDS011;17263;48.160;11.452;2023-09-08T04:17:32;5.63;;;5.13;;
30472;SDS011;17263;48.160;11.452;2023-09-08T04:19:58;8.37;;;6.53;;
30472;SDS011;17263;48.160;11.452;2023-09-08T04:22:24;7.53;;;6.67;;
30472;SDS011;17263;48.160;11.452;2023-09-08T04:24:50;6.87;;;6.27;;
30472;SDS011;17263;48.160;11.452;2023-09-08T04:27:18;10.17;;;6.27;;
30472;SDS011;17263;48.160;11.452;2023-09-08T04:29:44;7.80;;;6.13;;
30472;SDS011;17263;48.160;11.452;2023-09-08T04:32:10;6.30;;;5.70;;
30472;SDS011;17263;48.160;11.452;2023-09-08T04:34:40;6.77;;;6.00;;
30472;SDS011;17263;48.160;11.452;2023-09-08T04:37:07;9.47;;;6.27;;
30472;SDS011;17263;48.160;11.452;2023-09-08T04:39:34;7.20;;;6.40;;
30472;SDS011;17263;48.160;11.452;2023-09-08T04:42:01;6.80;;;6.20;;
30472;SDS011;17263;48.160;11.452;2023-09-08T04:44:27;6.53;;;5.90;;
30472;SDS011;17263;48.160;11.452;2023-09-08T04:46:54;6.73;;;6.13;;
30472;SDS011;17263;48.160;11.452;2023-09-08T04:49:20;8.13;;;6.03;;
30472;SDS011;17263;48.160;11.452;2023-09-08T04:51:46;6.60;;;6.10;;
30472;SDS011;17263;48.160;11.452;2023-09-08T04:54:12;7.13;;;6.37;;
30472;SDS011;17263;48.160;11.452;2023-09-08T04:56:38;9.13;;;6.63;;
30472;SDS011;17263;48.160;11.452;2023-09-08T04:59:05;6.37;;;5.77;;
30472;SDS011;17263;48.160;11.452;2023-09-08T05:01:31;7.67;;;6.30;;
30472;SDS011;17263;48.160;11.452;2023-09-08T05:04:00;7.40;;;6.70;;
30472;SDS011;17263;48.160;11.452;2023-09-08T05:06:26;6.40;;;5.83;;
30472;SDS011;17263;48.160;11.452;2023-09-08T05:08:52;8.33;;;6.27;;
30472;SDS011;17263;48.160;11.452;2023-09-08T05:11:18;7.80;;;6.50;;
30472;SDS011;17263;48.160;11.452;2023-09-08T05:13:46;8.47;;;6.13;;
30472;SDS011;17263;48.160;11.452;2023-09-08T05:16:12;8.27;;;5.63;;
30472;SDS011;17263;48.160;11.452;2023-09-08T05:18:38;6.33;;;5.77;;
30472;SDS011;17263;48.160;11.452;2023-09-08T05:21:06;8.20;;;6.73;;
30472;SDS011;17263;48.160;11.452;2023-09-08T05:23:32;7.50;;;6.40;;
30472;SDS011;17263;48.160;11.452;2023-09-08T05:25:58;7.07;;;6.37;;
30472;SDS011;17263;48.160;11.452;2023-09-08T05:28:25;9.13;;;6.37;;
30472;SDS011;17263;48.160;11.452;2023-09-08T05:30:52;7.57;;;6.17;;
30472;SDS011;17263;48.160;11.452;2023-09-08T05:33:18;6.57;;;5.97;;
30472;SDS011;17263;48.160;11.452;2023-09-08T05:35:44;9.23;;;6.77;;
30472;SDS011;17263;48.160;11.452;2023-09-08T05:38:11;6.80;;;6.17;;
30472;SDS011;17263;48.160;11.452;2023-09-08T05:40:37;9.97;;;6.93;;
30472;SDS011;17263;48.160;11.452;2023-09-08T05:43:03;7.67;;;6.60;;
30472;SDS011;17263;48.160;11.452;2023-09-08T05:45:31;8.23;;;7.33;;
30472;SDS011;17263;48.160;11.452;2023-09-08T05:47:57;8.10;;;7.30;;
30472;SDS011;17263;48.160;11.452;2023-09-08T05:50:23;7.33;;;6.63;;
30472;SDS011;17263;48.160;11.452;2023-09-08T05:52:50;8.33;;;7.53;;
30472;SDS011;17263;48.160;11.452;2023-09-08T05:55:17;8.13;;;7.33;;
30472;SDS011;17263;48.160;11.452;2023-09-08T05:57:43;10.23;;;7.40;;
30472;SDS011;17263;48.160;11.452;2023-09-08T06:00:09;8.80;;;7.90;;
30472;SDS011;17263;48.160;11.452;2023-09-08T06:02:35;11.57;;;7.70;;
30472;SDS011;17263;48.160;11.452;2023-09-08T06:05:02;9.60;;;8.60;;
30472;SDS011;17263;48.160;11.452;2023-09-08T06:07:28;12.07;;;10.87;;
30472;SDS011;17263;48.160;11.452;2023-09-08T06:09:54;13.63;;;11.57;;
30472;SDS011;17263;48.160;11.452;2023-09-08T06:12:20;10.93;;;9.83;;
30472;SDS011;17263;48.160;11.452;2023-09-08T06:14:46;9.60;;;8.60;;
30472;SDS011;17263;48.160;11.452;2023-09-08T06:17:12;8.60;;;7.77;;
30472;SDS011;17263;48.160;11.452;2023-09-08T06:19:38;11.10;;;9.97;;
30472;SDS011;17263;48.160;11.452;2023-09-08T06:22:04;10.43;;;8.83;;
30472;SDS011;17263;48.160;11.452;2023-09-08T06:24:30;11.67;;;9.73;;
30472;SDS011;17263;48.160;11.452;2023-09-08T06:26:56;13.33;;;9.03;;
30472;SDS011;17263;48.160;11.452;2023-09-08T06:29:22;13.87;;;8.47;;
30472;SDS011;17263;48.160;11.452;2023-09-08T06:31:48;10.83;;;8.40;;
30472;SDS011;17263;48.160;11.452;2023-09-08T06:34:14;8.43;;;7.40;;
30472;SDS011;17263;48.160;11.452;2023-09-08T06:36:40;8.40;;;7.67;;
30472;SDS011;17263;48.160;11.452;2023-09-08T06:39:06;8.50;;;7.27;;
30472;SDS011;17263;48.160;11.452;2023-09-08T06:41:32;8.57;;;7.73;;
30472;SDS011;17263;48.160;11.452;2023-09-08T06:43:58;9.80;;;8.63;;
30472;SDS011;17263;48.160;11.452;2023-09-08T06:46:25;9.83;;;8.23;;
30472;SDS011;17263;48.160;11.452;2023-09-08T06:48:51;8.27;;;7.37;;
30472;SDS011;17263;48.160;11.452;2023-09-08T06:51:17;9.33;;;8.40;;
30472;SDS011;17263;48.160;11.452;2023-09-08T06:53:43;23.53;;;20.97;;
30472;SDS011;17263;48.160;11.452;2023-09-08T06:56:10;10.88;;;9.38;;
30472;SDS011;17263;48.160;11.452;2023-09-08T06:58:36;13.55;;;8.27;;
30472;SDS011;17263;48.160;11.452;2023-09-08T07:01:02;15.73;;;8.85;;
30472;SDS011;17263;48.160;11.452;2023-09-08T07:03:28;11.05;;;8.90;;
30472;SDS011;17263;48.160;11.452;2023-09-08T07:05:54;8.93;;;8.07;;
30472;SDS011;17263;48.160;11.452;2023-09-08T07:08:20;10.88;;;8.48;;
30472;SDS011;17263;48.160;11.452;2023-09-08T07:10:51;9.55;;;7.97;;
30472;SDS011;17263;48.160;11.452;2023-09-08T07:13:18;13.50;;;8.82;;
30472;SDS011;17263;48.160;11.452;2023-09-08T07:15:44;15.00;;;7.97;;
30472;SDS011;17263;48.160;11.452;2023-09-08T07:18:10;13.38;;;8.82;;
30472;SDS011;17263;48.160;11.452;2023-09-08T07:20:36;16.30;;;8.85;;
30472;SDS011;17263;48.160;11.452;2023-09-08T07:23:02;11.95;;;8.38;;
30472;SDS011;17263;48.160;11.452;2023-09-08T07:25:28;9.05;;;7.97;;
30472;SDS011;17263;48.160;11.452;2023-09-08T07:27:54;13.02;;;8.32;;
30472;SDS011;17263;48.160;11.452;2023-09-08T07:30:20;9.68;;;7.55;;
30472;SDS011;17263;48.160;11.452;2023-09-08T07:32:46;15.30;;;8.20;;
30472;SDS011;17263;48.160;11.452;2023-09-08T07:35:12;14.35;;;8.13;;
30472;SDS011;17263;48.160;11.452;2023-09-08T07:37:40;8.25;;;7.38;;
30472;SDS011;17263;48.160;11.452;2023-09-08T07:40:09;11.38;;;8.10;;
30472;SDS011;17263;48.160;11.452;2023-09-08T07:42:35;9.20;;;8.10;;
30472;SDS011;17263;48.160;11.452;2023-09-08T07:45:02;10.25;;;7.97;;
30472;SDS011;17263;48.160;11.452;2023-09-08T07:47:28;7.85;;;7.15;;
30472;SDS011;17263;48.160;11.452;2023-09-08T07:50:15;11.15;;;8.45;;
30472;SDS011;17263;48.160;11.452;2023-09-08T07:52:44;9.52;;;8.52;;
30472;SDS011;17263;48.160;11.452;2023-09-08T07:55:10;11.48;;;8.10;;
30472;SDS011;17263;48.160;11.452;2023-09-08T07:57:36;9.68;;;8.70;;
30472;SDS011;17263;48.160;11.452;2023-09-08T08:00:02;8.75;;;7.95;;
30472;SDS011;17263;48.160;11.452;2023-09-08T08:02:29;8.98;;;8.10;;
30472;SDS011;17263;48.160;11.452;2023-09-08T08:04:56;9.40;;;7.93;;
30472;SDS011;17263;48.160;11.452;2023-09-08T08:07:23;10.27;;;8.32;;
30472;SDS011;17263;48.160;11.452;2023-09-08T08:09:49;9.60;;;8.30;;
30472;SDS011;17263;48.160;11.452;2023-09-08T08:12:15;10.32;;;7.93;;
30472;SDS011;17263;48.160;11.452;2023-09-08T08:14:41;10.20;;;7.63;;
30472;SDS011;17263;48.160;11.452;2023-09-08T08:17:07;9.15;;;8.23;;
30472;SDS011;17263;48.160;11.452;2023-09-08T08:19:33;7.88;;;7.07;;
30472;SDS011;17263;48.160;11.452;2023-09-08T08:21:59;9.98;;;8.45;;
30472;SDS011;17263;48.160;11.452;2023-09-08T08:24:25;9.25;;;7.45;;
30472;SDS011;17263;48.160;11.452;2023-09-08T08:26:51;8.75;;;7.47;;
30472;SDS011;17263;48.160;11.452;2023-09-08T08:29:17;10.82;;;8.20;;
30472;SDS011;17263;48.160;11.452;2023-09-08T08:31:43;8.48;;;7.68;;
30472;SDS011;17263;48.160;11.452;2023-09-08T08:34:10;9.15;;;8.15;;
30472;SDS011;17263;48.160;11.452;2023-09-08T08:36:36;10.27;;;7.43;;
30472;SDS011;17263;48.160;11.452;2023-09-08T08:39:02;12.63;;;9.00;;
30472;SDS011;17263;48.160;11.452;2023-09-08T08:41:28;9.98;;;8.90;;
30472;SDS011;17263;48.160;11.452;2023-09-08T08:43:54;8.07;;;6.95;;
30472;SDS011;17263;48.160;11.452;2023-09-08T08:46:21;9.25;;;8.35;;
30472;SDS011;17263;48.160;11.452;2023-09-08T08:48:48;8.38;;;7.55;;
30472;SDS011;17263;48.160;11.452;2023-09-08T08:51:20;8.98;;;7.63;;
30472;SDS011;17263;48.160;11.452;2023-09-08T08:53:49;10.90;;;8.48;;
30472;SDS011;17263;48.160;11.452;2023-09-08T08:56:15;10.13;;;7.25;;
30472;SDS011;17263;48.160;11.452;2023-09-08T08:58:43;10.10;;;8.18;;
30472;SDS011;17263;48.160;11.452;2023-09-08T09:01:10;9.75;;;8.20;;
30472;SDS011;17263;48.160;11.452;2023-09-08T09:03:38;8.73;;;7.25;;
30472;SDS011;17263;48.160;11.452;2023-09-08T09:06:05;8.63;;;7.63;;
30472;SDS011;17263;48.160;11.452;2023-09-08T09:08:32;10.02;;;7.88;;
30472;SDS011;17263;48.160;11.452;2023-09-08T09:10:59;8.00;;;7.22;;
30472;SDS011;17263;48.160;11.452;2023-09-08T09:13:25;8.70;;;7.80;;
30472;SDS011;17263;48.160;11.452;2023-09-08T09:15:51;8.85;;;7.97;;
30472;SDS011;17263;48.160;11.452;2023-09-08T09:18:17;9.98;;;7.82;;
30472;SDS011;17263;48.160;11.452;2023-09-08T09:20:52;8.30;;;7.10;;
30472;SDS011;17263;48.160;11.452;2023-09-08T09:23:27;9.20;;;7.53;;
30472;SDS011;17263;48.160;11.452;2023-09-08T09:25:57;8.77;;;7.72;;
30472;SDS011;17263;48.160;11.452;2023-09-08T09:28:24;9.20;;;7.30;;
30472;SDS011;17263;48.160;11.452;2023-09-08T09:30:51;7.60;;;6.88;;
30472;SDS011;17263;48.160;11.452;2023-09-08T09:33:20;7.78;;;7.07;;
30472;SDS011;17263;48.160;11.452;2023-09-08T09:35:47;9.32;;;6.25;;
30472;SDS011;17263;48.160;11.452;2023-09-08T09:38:15;7.07;;;6.38;;
30472;SDS011;17263;48.160;11.452;2023-09-08T09:40:44;7.45;;;6.35;;
30472;SDS011;17263;48.160;11.452;2023-09-08T09:43:11;6.68;;;6.07;;
30472;SDS011;17263;48.160;11.452;2023-09-08T09:45:38;7.57;;;6.85;;
30472;SDS011;17263;48.160;11.452;2023-09-08T09:48:06;8.68;;;6.82;;
30472;SDS011;17263;48.160;11.452;2023-09-08T09:50:36;7.05;;;5.63;;
30472;SDS011;17263;48.160;11.452;2023-09-08T09:53:10;8.60;;;6.65;;
30472;SDS011;17263;48.160;11.452;2023-09-08T09:55:41;9.90;;;7.05;;
30472;SDS011;17263;48.160;11.452;2023-09-08T09:58:10;8.82;;;6.65;;
30472;SDS011;17263;48.160;11.452;2023-09-08T10:00:37;6.70;;;5.97;;
30472;SDS011;17263;48.160;11.452;2023-09-08T10:03:06;7.35;;;6.00;;
30472;SDS011;17263;48.160;11.452;2023-09-08T10:05:33;10.75;;;6.60;;
30472;SDS011;17263;48.160;11.452;2023-09-08T10:07:59;7.13;;;5.82;;
30472;SDS011;17263;48.160;11.452;2023-09-08T10:10:27;9.38;;;6.05;;
30472;SDS011;17263;48.160;11.452;2023-09-08T10:12:57;8.38;;;6.38;;
30472;SDS011;17263;48.160;11.452;2023-09-08T10:15:28;8.35;;;6.22;;
30472;SDS011;17263;48.160;11.452;2023-09-08T10:17:56;9.20;;;5.70;;
30472;SDS011;17263;48.160;11.452;2023-09-08T10:20:26;6.28;;;5.03;;
30472;SDS011;17263;48.160;11.452;2023-09-08T10:22:54;6.25;;;5.65;;
30472;SDS011;17263;48.160;11.452;2023-09-08T10:25:29;6.45;;;5.60;;
30472;SDS011;17263;48.160;11.452;2023-09-08T10:28:01;9.07;;;6.03;;
30472;SDS011;17263;48.160;11.452;2023-09-08T10:30:29;7.18;;;6.05;;
30472;SDS011;17263;48.160;11.452;2023-09-08T10:32:56;6.93;;;6.25;;
30472;SDS011;17263;48.160;11.452;2023-09-08T10:35:23;7.00;;;6.10;;
30472;SDS011;17263;48.160;11.452;2023-09-08T10:37:50;6.97;;;6.13;;
30472;SDS011;17263;48.160;11.452;2023-09-08T10:40:25;8.68;;;6.22;;
30472;SDS011;17263;48.160;11.452;2023-09-08T10:43:06;7.82;;;6.03;;
30472;SDS011;17263;48.160;11.452;2023-09-08T10:45:33;7.97;;;6.15;;
30472;SDS011;17263;48.160;11.452;2023-09-08T10:47:59;7.50;;;6.10;;
30472;SDS011;17263;48.160;11.452;2023-09-08T10:50:32;12.70;;;6.75;;
30472;SDS011;17263;48.160;11.452;2023-09-08T10:53:18;6.20;;;5.60;;
30472;SDS011;17263;48.160;11.452;2023-09-08T10:55:48;8.98;;;6.75;;
30472;SDS011;17263;48.160;11.452;2023-09-08T10:58:39;8.02;;;5.75;;
30472;SDS011;17263;48.160;11.452;2023-09-08T11:01:12;13.83;;;6.73;;
30472;SDS011;17263;48.160;11.452;2023-09-08T11:06:07;6.15;;;5.55;;
30472;SDS011;17263;48.160;11.452;2023-09-08T11:08:36;6.15;;;5.55;;
30472;SDS011;17263;48.160;11.452;2023-09-08T11:11:04;7.05;;;6.35;;
30472;SDS011;17263;48.160;11.452;2023-09-08T11:13:30;6.85;;;6.18;;
30472;SDS011;17263;48.160;11.452;2023-09-08T11:15:56;6.75;;;6.05;;
30472;SDS011;17263;48.160;11.452;2023-09-08T11:18:28;9.02;;;6.43;;
30472;SDS011;17263;48.160;11.452;2023-09-08T11:20:55;8.07;;;6.15;;
30472;SDS011;17263;48.160;11.452;2023-09-08T11:23:22;6.88;;;6.20;;
30472;SDS011;17263;48.160;11.452;2023-09-08T11:25:50;8.07;;;6.63;;
30472;SDS011;17263;48.160;11.452;2023-09-08T11:28:17;9.27;;;6.20;;
30472;SDS011;17263;48.160;11.452;2023-09-08T11:30:47;9.38;;;5.72;;
30472;SDS011;17263;48.160;11.452;2023-09-08T11:33:14;9.13;;;5.90;;
30472;SDS011;17263;48.160;11.452;2023-09-08T11:35:41;9.88;;;7.00;;
30472;SDS011;17263;48.160;11.452;2023-09-08T11:38:10;7.32;;;6.47;;
30472;SDS011;17263;48.160;11.452;2023-09-08T11:40:45;6.78;;;6.10;;
30472;SDS011;17263;48.160;11.452;2023-09-08T11:43:12;7.03;;;5.68;;
30472;SDS011;17263;48.160;11.452;2023-09-08T11:45:38;6.40;;;5.85;;
30472;SDS011;17263;48.160;11.452;2023-09-08T11:48:04;7.22;;;6.50;;
30472;SDS011;17263;48.160;11.452;2023-09-08T11:50:31;6.70;;;6.00;;
30472;SDS011;17263;48.160;11.452;2023-09-08T11:52:57;6.78;;;5.93;;
30472;SDS011;17263;48.160;11.452;2023-09-08T11:55:24;6.32;;;5.70;;
30472;SDS011;17263;48.160;11.452;2023-09-08T11:57:52;6.18;;;5.40;;
30472;SDS011;17263;48.160;11.452;2023-09-08T12:00:23;9.60;;;6.00;;
30472;SDS011;17263;48.160;11.452;2023-09-08T12:02:51;6.63;;;5.90;;
30472;SDS011;17263;48.160;11.452;2023-09-08T12:05:24;6.65;;;6.03;;
30472;SDS011;17263;48.160;11.452;2023-09-08T12:07:53;5.63;;;5.03;;
30472;SDS011;17263;48.160;11.452;2023-09-08T12:10:20;6.43;;;5.40;;
30472;SDS011;17263;48.160;11.452;2023-09-08T12:12:50;7.25;;;6.38;;
30472;SDS011;17263;48.160;11.452;2023-09-08T12:15:32;6.65;;;6.00;;
30472;SDS011;17263;48.160;11.452;2023-09-08T12:18:06;6.20;;;5.63;;
30472;SDS011;17263;48.160;11.452;2023-09-08T12:20:34;6.68;;;6.03;;
30472;SDS011;17263;48.160;11.452;2023-09-08T12:23:03;5.78;;;5.28;;
30472;SDS011;17263;48.160;11.452;2023-09-08T12:25:30;7.65;;;5.43;;
30472;SDS011;17263;48.160;11.452;2023-09-08T12:27:57;6.85;;;5.63;;
30472;SDS011;17263;48.160;11.452;2023-09-08T12:30:24;5.95;;;5.40;;
30472;SDS011;17263;48.160;11.452;2023-09-08T12:32:56;7.47;;;5.65;;
30472;SDS011;17263;48.160;11.452;2023-09-08T12:35:24;7.47;;;5.85;;
30472;SDS011;17263;48.160;11.452;2023-09-08T12:38:01;6.80;;;5.68;;
30472;SDS011;17263;48.160;11.452;2023-09-08T12:40:34;7.70;;;5.90;;
30472;SDS011;17263;48.160;11.452;2023-09-08T12:43:01;7.30;;;6.00;;
30472;SDS011;17263;48.160;11.452;2023-09-08T12:45:29;7.00;;;6.13;;
30472;SDS011;17263;48.160;11.452;2023-09-08T12:47:57;7.65;;;5.93;;
30472;SDS011;17263;48.160;11.452;2023-09-08T12:50:26;5.95;;;5.45;;
30472;SDS011;17263;48.160;11.452;2023-09-08T12:52:53;6.57;;;5.82;;
30472;SDS011;17263;48.160;11.452;2023-09-08T12:55:19;7.45;;;6.18;;
30472;SDS011;17263;48.160;11.452;2023-09-08T12:57:45;6.53;;;5.50;;
30472;SDS011;17263;48.160;11.452;2023-09-08T13:00:12;6.50;;;5.90;;
30472;SDS011;17263;48.160;11.452;2023-09-08T13:02:39;6.90;;;6.20;;
30472;SDS011;17263;48.160;11.452;2023-09-08T13:05:07;6.32;;;5.72;;
30472;SDS011;17263;48.160;11.452;2023-09-08T13:07:33;7.73;;;5.50;;
30472;SDS011;17263;48.160;11.452;2023-09-08T13:09:59;7.70;;;6.18;;
30472;SDS011;17263;48.160;11.452;2023-09-08T13:12:25;7.88;;;5.70;;
30472;SDS011;17263;48.160;11.452;2023-09-08T13:14:51;7.70;;;5.82;;
30472;SDS011;17263;48.160;11.452;2023-09-08T13:17:17;6.97;;;6.20;;
30472;SDS011;17263;48.160;11.452;2023-09-08T13:19:44;6.70;;;6.00;;
30472;SDS011;17263;48.160;11.452;2023-09-08T13:22:10;7.95;;;6.07;;
30472;SDS011;17263;48.160;11.452;2023-09-08T13:24:36;8.20;;;5.85;;
30472;SDS011;17263;48.160;11.452;2023-09-08T13:27:03;6.03;;;5.55;;
30472;SDS011;17263;48.160;11.452;2023-09-08T13:29:29;6.82;;;5.53;;
30472;SDS011;17263;48.160;11.452;2023-09-08T13:31:55;6.72;;;6.00;;
30472;SDS011;17263;48.160;11.452;2023-09-08T13:34:22;7.10;;;5.80;;
30472;SDS011;17263;48.160;11.452;2023-09-08T13:36:48;7.63;;;5.78;;
30472;SDS011;17263;48.160;11.452;2023-09-08T13:39:14;6.32;;;5.72;;
30472;SDS011;17263;48.160;11.452;2023-09-08T13:41:51;5.40;;;4.95;;
30472;SDS011;17263;48.160;11.452;2023-09-08T13:44:21;5.70;;;5.20;;
30472;SDS011;17263;48.160;11.452;2023-09-08T13:46:49;6.28;;;5.68;;
30472;SDS011;17263;48.160;11.452;2023-09-08T13:49:16;6.75;;;5.85;;
30472;SDS011;17263;48.160;11.452;2023-09-08T13:51:42;7.35;;;6.50;;
30472;SDS011;17263;48.160;11.452;2023-09-08T13:54:09;5.93;;;5.40;;
30472;SDS011;17263;48.160;11.452;2023-09-08T13:56:37;6.68;;;5.90;;
30472;SDS011;17263;48.160;11.452;2023-09-08T13:59:04;6.07;;;5.53;;
30472;SDS011;17263;48.160;11.452;2023-09-08T14:01:32;6.13;;;5.63;;
30472;SDS011;17263;48.160;11.452;2023-09-08T14:03:59;6.40;;;5.78;;
30472;SDS011;17263;48.160;11.452;2023-09-08T14:06:26;6.45;;;5.70;;
30472;SDS011;17263;48.160;11.452;2023-09-08T14:08:53;6.38;;;5.72;;
30472;SDS011;17263;48.160;11.452;2023-09-08T14:11:19;6.18;;;5.57;;
30472;SDS011;17263;48.160;11.452;2023-09-08T14:13:46;8.82;;;5.60;;
30472;SDS011;17263;48.160;11.452;2023-09-08T14:16:12;5.35;;;4.95;;
30472;SDS011;17263;48.160;11.452;2023-09-08T14:18:38;5.60;;;5.10;;
30472;SDS011;17263;48.160;11.452;2023-09-08T14:21:05;6.53;;;5.95;;
30472;SDS011;17263;48.160;11.452;2023-09-08T14:23:32;6.60;;;5.80;;
30472;SDS011;17263;48.160;11.452;2023-09-08T14:25:59;6.22;;;5.55;;
30472;SDS011;17263;48.160;11.452;2023-09-08T14:28:25;5.68;;;5.13;;
30472;SDS011;17263;48.160;11.452;2023-09-08T14:30:52;7.07;;;5.47;;
30472;SDS011;17263;48.160;11.452;2023-09-08T14:33:19;5.80;;;5.30;;
30472;SDS011;17263;48.160;11.452;2023-09-08T14:35:45;5.97;;;5.38;;
30472;SDS011;17263;48.160;11.452;2023-09-08T14:38:17;7.63;;;5.40;;
30472;SDS011;17263;48.160;11.452;2023-09-08T14:40:44;6.25;;;5.60;;
30472;SDS011;17263;48.160;11.452;2023-09-08T14:43:18;7.90;;;5.20;;